sensor_id;sensor_type;location;lat;lon;timestamp;P1;durP1;ratioP1;P2;durP2;ratioP2
6348;SDS011;3207;42.648;23.406;2023-08-08T00:00:17;1.50;;;1.30;;
6348;SDS011;3207;42.648;23.406;2023-08-08T00:02:44;1.92;;;1.30;;
6348;SDS011;3207;42.648;23.406;2023-08-08T00:05:11;2.15;;;1.80;;
6348;SDS011;3207;42.648;23.406;2023-08-08T00:07:38;2.35;;;0.90;;
6348;SDS011;3207;42.648;23.406;2023-08-08T00:10:07;1.27;;;1.17;;
6348;SDS011;3207;42.648;23.406;2023-08-08T00:12:34;1.70;;;0.93;;
6348;SDS011;3207;42.648;23.406;2023-08-08T00:15:01;1.05;;;0.93;;
6348;SDS011;3207;42.648;23.406;2023-08-08T00:17:28;1.38;;;1.02;;
6348;SDS011;3207;42.648;23.406;2023-08-08T00:19:54;1.08;;;0.95;;
6348;SDS011;3207;42.648;23.406;2023-08-08T00:22:21;1.60;;;0.60;;
6348;SDS011;3207;42.648;23.406;2023-08-08T00:24:48;3.80;;;1.13;;
6348;SDS011;3207;42.648;23.406;2023-08-08T00:27:16;2.83;;;0.95;;
6348;SDS011;3207;42.648;23.406;2023-08-08T00:29:43;8.05;;;1.63;;
6348;SDS011;3207;42.648;23.406;2023-08-08T00:32:11;2.13;;;1.20;;
6348;SDS011;3207;42.648;23.406;2023-08-08T00:34:37;2.55;;;1.20;;
6348;SDS011;3207;42.648;23.406;2023-08-08T00:37:04;2.42;;;0.88;;
6348;SDS011;3207;42.648;23.406;2023-08-08T00:39:31;3.25;;;1.02;;
6348;SDS011;3207;42.648;23.406;2023-08-08T00:41:58;4.75;;;0.85;;
6348;SDS011;3207;42.648;23.406;2023-08-08T00:44:26;3.78;;;1.63;;
6348;SDS011;3207;42.648;23.406;2023-08-08T00:46:53;7.22;;;1.60;;
6348;SDS011;3207;42.648;23.406;2023-08-08T00:49:20;1.67;;;1.10;;
6348;SDS011;3207;42.648;23.406;2023-08-08T00:51:47;3.30;;;1.23;;
6348;SDS011;3207;42.648;23.406;2023-08-08T00:54:14;1.42;;;0.95;;
6348;SDS011;3207;42.648;23.406;2023-08-08T00:56:41;1.48;;;0.60;;
6348;SDS011;3207;42.648;23.406;2023-08-08T00:59:08;5.93;;;1.00;;
6348;SDS011;3207;42.648;23.406;2023-08-08T01:01:39;3.30;;;0.85;;
6348;SDS011;3207;42.648;23.406;2023-08-08T01:04:06;0.63;;;0.50;;
6348;SDS011;3207;42.648;23.406;2023-08-08T01:06:34;1.83;;;0.85;;
6348;SDS011;3207;42.648;23.406;2023-08-08T01:09:07;7.95;;;0.93;;
6348;SDS011;3207;42.648;23.406;2023-08-08T01:11:38;0.93;;;0.77;;
6348;SDS011;3207;42.648;23.406;2023-08-08T01:14:06;0.60;;;0.60;;
6348;SDS011;3207;42.648;23.406;2023-08-08T01:16:35;6.05;;;0.85;;
6348;SDS011;3207;42.648;23.406;2023-08-08T01:19:04;1.40;;;0.90;;
6348;SDS011;3207;42.648;23.406;2023-08-08T01:21:33;1.38;;;1.10;;
6348;SDS011;3207;42.648;23.406;2023-08-08T01:24:19;2.40;;;0.73;;
6348;SDS011;3207;42.648;23.406;2023-08-08T01:26:47;0.65;;;0.65;;
6348;SDS011;3207;42.648;23.406;2023-08-08T01:29:15;3.22;;;0.80;;
6348;SDS011;3207;42.648;23.406;2023-08-08T01:31:42;0.73;;;0.73;;
6348;SDS011;3207;42.648;23.406;2023-08-08T01:34:08;6.53;;;0.80;;
6348;SDS011;3207;42.648;23.406;2023-08-08T01:36:36;1.00;;;0.68;;
6348;SDS011;3207;42.648;23.406;2023-08-08T01:39:09;0.98;;;0.80;;
6348;SDS011;3207;42.648;23.406;2023-08-08T01:41:42;0.90;;;0.70;;
6348;SDS011;3207;42.648;23.406;2023-08-08T01:44:12;5.70;;;0.77;;
6348;SDS011;3207;42.648;23.406;2023-08-08T01:46:39;0.82;;;0.82;;
6348;SDS011;3207;42.648;23.406;2023-08-08T01:49:06;1.63;;;0.93;;
6348;SDS011;3207;42.648;23.406;2023-08-08T01:51:33;5.05;;;0.90;;
6348;SDS011;3207;42.648;23.406;2023-08-08T01:54:00;24.23;;;1.58;;
6348;SDS011;3207;42.648;23.406;2023-08-08T01:56:26;1.52;;;0.70;;
6348;SDS011;3207;42.648;23.406;2023-08-08T01:58:55;1.40;;;0.93;;
6348;SDS011;3207;42.648;23.406;2023-08-08T02:01:23;1.98;;;0.88;;
6348;SDS011;3207;42.648;23.406;2023-08-08T02:03:50;8.68;;;0.95;;
6348;SDS011;3207;42.648;23.406;2023-08-08T02:06:17;4.38;;;1.08;;
6348;SDS011;3207;42.648;23.406;2023-08-08T02:08:44;1.20;;;1.10;;
6348;SDS011;3207;42.648;23.406;2023-08-08T02:11:11;4.07;;;1.00;;
6348;SDS011;3207;42.648;23.406;2023-08-08T02:13:38;0.82;;;0.70;;
6348;SDS011;3207;42.648;23.406;2023-08-08T02:16:06;1.60;;;0.95;;
6348;SDS011;3207;42.648;23.406;2023-08-08T02:18:33;1.08;;;0.98;;
6348;SDS011;3207;42.648;23.406;2023-08-08T02:21:01;1.30;;;1.05;;
6348;SDS011;3207;42.648;23.406;2023-08-08T02:23:28;2.72;;;0.90;;
6348;SDS011;3207;42.648;23.406;2023-08-08T02:25:54;1.60;;;1.17;;
6348;SDS011;3207;42.648;23.406;2023-08-08T02:28:21;1.25;;;1.15;;
6348;SDS011;3207;42.648;23.406;2023-08-08T02:30:48;3.35;;;1.25;;
6348;SDS011;3207;42.648;23.406;2023-08-08T02:33:16;1.90;;;0.90;;
6348;SDS011;3207;42.648;23.406;2023-08-08T02:35:43;3.33;;;1.08;;
6348;SDS011;3207;42.648;23.406;2023-08-08T02:38:09;0.98;;;0.98;;
6348;SDS011;3207;42.648;23.406;2023-08-08T02:40:36;1.30;;;1.20;;
6348;SDS011;3207;42.648;23.406;2023-08-08T02:43:04;3.05;;;0.82;;
6348;SDS011;3207;42.648;23.406;2023-08-08T02:45:31;5.95;;;1.10;;
6348;SDS011;3207;42.648;23.406;2023-08-08T02:47:57;2.50;;;1.08;;
6348;SDS011;3207;42.648;23.406;2023-08-08T02:50:26;1.00;;;0.80;;
6348;SDS011;3207;42.648;23.406;2023-08-08T02:52:52;1.63;;;0.80;;
6348;SDS011;3207;42.648;23.406;2023-08-08T02:55:19;1.63;;;0.80;;
6348;SDS011;3207;42.648;23.406;2023-08-08T02:57:46;1.77;;;1.17;;
6348;SDS011;3207;42.648;23.406;2023-08-08T03:00:13;4.30;;;1.42;;
6348;SDS011;3207;42.648;23.406;2023-08-08T03:02:40;1.67;;;1.40;;
6348;SDS011;3207;42.648;23.406;2023-08-08T03:05:07;1.17;;;1.08;;
6348;SDS011;3207;42.648;23.406;2023-08-08T03:07:35;3.88;;;1.23;;
6348;SDS011;3207;42.648;23.406;2023-08-08T03:10:03;4.03;;;1.73;;
6348;SDS011;3207;42.648;23.406;2023-08-08T03:12:31;1.02;;;0.93;;
6348;SDS011;3207;42.648;23.406;2023-08-08T03:14:58;1.23;;;0.70;;
6348;SDS011;3207;42.648;23.406;2023-08-08T03:17:24;1.83;;;0.80;;
6348;SDS011;3207;42.648;23.406;2023-08-08T03:19:51;3.67;;;1.35;;
6348;SDS011;3207;42.648;23.406;2023-08-08T03:22:18;0.60;;;0.60;;
6348;SDS011;3207;42.648;23.406;2023-08-08T03:24:46;0.90;;;0.90;;
6348;SDS011;3207;42.648;23.406;2023-08-08T03:27:13;4.95;;;1.00;;
6348;SDS011;3207;42.648;23.406;2023-08-08T03:29:40;2.08;;;1.40;;
6348;SDS011;3207;42.648;23.406;2023-08-08T03:32:07;3.78;;;1.50;;
6348;SDS011;3207;42.648;23.406;2023-08-08T03:34:33;2.88;;;1.35;;
6348;SDS011;3207;42.648;23.406;2023-08-08T03:37:00;0.75;;;0.75;;
6348;SDS011;3207;42.648;23.406;2023-08-08T03:39:27;1.27;;;1.08;;
6348;SDS011;3207;42.648;23.406;2023-08-08T03:41:55;0.85;;;0.80;;
6348;SDS011;3207;42.648;23.406;2023-08-08T03:44:22;2.50;;;1.13;;
6348;SDS011;3207;42.648;23.406;2023-08-08T03:46:49;3.72;;;1.10;;
6348;SDS011;3207;42.648;23.406;2023-08-08T03:49:16;2.35;;;1.10;;
6348;SDS011;3207;42.648;23.406;2023-08-08T03:51:43;2.63;;;1.13;;
6348;SDS011;3207;42.648;23.406;2023-08-08T03:54:09;3.50;;;1.13;;
6348;SDS011;3207;42.648;23.406;2023-08-08T03:56:36;1.38;;;1.10;;
6348;SDS011;3207;42.648;23.406;2023-08-08T03:59:04;0.90;;;0.90;;
6348;SDS011;3207;42.648;23.406;2023-08-08T04:01:31;4.03;;;1.20;;
6348;SDS011;3207;42.648;23.406;2023-08-08T04:03:58;4.05;;;1.80;;
6348;SDS011;3207;42.648;23.406;2023-08-08T04:06:25;1.58;;;1.05;;
6348;SDS011;3207;42.648;23.406;2023-08-08T04:08:52;2.10;;;1.17;;
6348;SDS011;3207;42.648;23.406;2023-08-08T04:11:18;6.43;;;1.17;;
6348;SDS011;3207;42.648;23.406;2023-08-08T04:13:45;1.88;;;1.38;;
6348;SDS011;3207;42.648;23.406;2023-08-08T04:16:13;3.72;;;1.10;;
6348;SDS011;3207;42.648;23.406;2023-08-08T04:18:40;2.53;;;1.10;;
6348;SDS011;3207;42.648;23.406;2023-08-08T04:21:07;1.85;;;1.27;;
6348;SDS011;3207;42.648;23.406;2023-08-08T04:23:34;6.00;;;1.15;;
6348;SDS011;3207;42.648;23.406;2023-08-08T04:26:01;1.67;;;1.20;;
6348;SDS011;3207;42.648;23.406;2023-08-08T04:28:28;2.03;;;1.30;;
6348;SDS011;3207;42.648;23.406;2023-08-08T04:30:55;3.17;;;1.08;;
6348;SDS011;3207;42.648;23.406;2023-08-08T04:33:23;3.63;;;1.23;;
6348;SDS011;3207;42.648;23.406;2023-08-08T04:35:49;2.55;;;1.00;;
6348;SDS011;3207;42.648;23.406;2023-08-08T04:38:16;2.40;;;0.95;;
6348;SDS011;3207;42.648;23.406;2023-08-08T04:40:44;1.23;;;1.10;;
6348;SDS011;3207;42.648;23.406;2023-08-08T04:43:10;2.03;;;1.10;;
6348;SDS011;3207;42.648;23.406;2023-08-08T04:45:37;1.25;;;1.13;;
6348;SDS011;3207;42.648;23.406;2023-08-08T04:48:04;1.98;;;0.93;;
6348;SDS011;3207;42.648;23.406;2023-08-08T04:50:33;4.72;;;1.50;;
6348;SDS011;3207;42.648;23.406;2023-08-08T04:53:00;1.20;;;1.00;;
6348;SDS011;3207;42.648;23.406;2023-08-08T04:55:27;2.60;;;1.20;;
6348;SDS011;3207;42.648;23.406;2023-08-08T04:57:53;2.85;;;1.35;;
6348;SDS011;3207;42.648;23.406;2023-08-08T05:00:20;1.60;;;1.40;;
6348;SDS011;3207;42.648;23.406;2023-08-08T05:02:47;2.97;;;1.50;;
6348;SDS011;3207;42.648;23.406;2023-08-08T05:05:14;5.93;;;1.42;;
6348;SDS011;3207;42.648;23.406;2023-08-08T05:07:42;1.75;;;1.25;;
6348;SDS011;3207;42.648;23.406;2023-08-08T05:10:09;2.97;;;1.80;;
6348;SDS011;3207;42.648;23.406;2023-08-08T05:12:36;1.80;;;1.70;;
6348;SDS011;3207;42.648;23.406;2023-08-08T05:15:03;7.60;;;1.60;;
6348;SDS011;3207;42.648;23.406;2023-08-08T05:17:31;7.57;;;1.90;;
6348;SDS011;3207;42.648;23.406;2023-08-08T05:19:58;1.42;;;1.33;;
6348;SDS011;3207;42.648;23.406;2023-08-08T05:22:25;1.65;;;1.50;;
6348;SDS011;3207;42.648;23.406;2023-08-08T05:24:53;3.55;;;1.60;;
6348;SDS011;3207;42.648;23.406;2023-08-08T05:27:20;3.33;;;1.65;;
6348;SDS011;3207;42.648;23.406;2023-08-08T05:29:47;1.85;;;1.67;;
6348;SDS011;3207;42.648;23.406;2023-08-08T05:32:14;1.88;;;1.70;;
6348;SDS011;3207;42.648;23.406;2023-08-08T05:34:41;2.92;;;1.52;;
6348;SDS011;3207;42.648;23.406;2023-08-08T05:37:08;4.32;;;1.92;;
6348;SDS011;3207;42.648;23.406;2023-08-08T05:39:34;2.50;;;2.05;;
6348;SDS011;3207;42.648;23.406;2023-08-08T05:42:02;3.40;;;2.55;;
6348;SDS011;3207;42.648;23.406;2023-08-08T05:44:29;2.33;;;1.63;;
6348;SDS011;3207;42.648;23.406;2023-08-08T05:46:56;2.00;;;1.50;;
6348;SDS011;3207;42.648;23.406;2023-08-08T05:49:23;3.35;;;2.10;;
6348;SDS011;3207;42.648;23.406;2023-08-08T05:51:50;4.75;;;2.55;;
6348;SDS011;3207;42.648;23.406;2023-08-08T05:54:16;2.88;;;1.70;;
6348;SDS011;3207;42.648;23.406;2023-08-08T05:56:43;3.60;;;2.03;;
6348;SDS011;3207;42.648;23.406;2023-08-08T05:59:11;7.90;;;2.08;;
6348;SDS011;3207;42.648;23.406;2023-08-08T06:01:38;4.28;;;1.80;;
6348;SDS011;3207;42.648;23.406;2023-08-08T06:04:05;7.20;;;1.42;;
6348;SDS011;3207;42.648;23.406;2023-08-08T06:06:33;3.15;;;1.63;;
6348;SDS011;3207;42.648;23.406;2023-08-08T06:08:59;2.33;;;1.70;;
6348;SDS011;3207;42.648;23.406;2023-08-08T06:11:26;5.40;;;1.55;;
6348;SDS011;3207;42.648;23.406;2023-08-08T06:13:53;5.13;;;1.90;;
6348;SDS011;3207;42.648;23.406;2023-08-08T06:16:22;4.82;;;1.73;;
6348;SDS011;3207;42.648;23.406;2023-08-08T06:18:48;2.45;;;1.92;;
6348;SDS011;3207;42.648;23.406;2023-08-08T06:21:15;7.45;;;1.83;;
6348;SDS011;3207;42.648;23.406;2023-08-08T06:23:42;4.93;;;2.15;;
6348;SDS011;3207;42.648;23.406;2023-08-08T06:26:09;4.70;;;2.85;;
6348;SDS011;3207;42.648;23.406;2023-08-08T06:28:36;10.20;;;3.50;;
6348;SDS011;3207;42.648;23.406;2023-08-08T06:31:02;17.40;;;6.55;;
6348;SDS011;3207;42.648;23.406;2023-08-08T06:33:31;10.57;;;5.32;;
6348;SDS011;3207;42.648;23.406;2023-08-08T06:35:58;5.82;;;2.75;;
6348;SDS011;3207;42.648;23.406;2023-08-08T06:38:24;7.85;;;4.00;;
6348;SDS011;3207;42.648;23.406;2023-08-08T06:40:51;4.50;;;2.17;;
6348;SDS011;3207;42.648;23.406;2023-08-08T06:43:18;10.05;;;4.20;;
6348;SDS011;3207;42.648;23.406;2023-08-08T06:45:45;3.67;;;2.33;;
6348;SDS011;3207;42.648;23.406;2023-08-08T06:48:12;7.30;;;2.55;;
6348;SDS011;3207;42.648;23.406;2023-08-08T06:50:40;4.60;;;2.38;;
6348;SDS011;3207;42.648;23.406;2023-08-08T06:53:07;11.77;;;2.80;;
6348;SDS011;3207;42.648;23.406;2023-08-08T06:55:33;3.28;;;1.83;;
6348;SDS011;3207;42.648;23.406;2023-08-08T06:58:00;4.38;;;2.55;;
6348;SDS011;3207;42.648;23.406;2023-08-08T07:00:27;10.55;;;5.13;;
6348;SDS011;3207;42.648;23.406;2023-08-08T07:02:54;4.15;;;2.55;;
6348;SDS011;3207;42.648;23.406;2023-08-08T07:05:21;4.57;;;1.85;;
6348;SDS011;3207;42.648;23.406;2023-08-08T07:07:50;5.25;;;3.35;;
6348;SDS011;3207;42.648;23.406;2023-08-08T07:10:17;3.30;;;1.90;;
6348;SDS011;3207;42.648;23.406;2023-08-08T07:12:44;4.38;;;2.70;;
6348;SDS011;3207;42.648;23.406;2023-08-08T07:15:11;3.42;;;2.15;;
6348;SDS011;3207;42.648;23.406;2023-08-08T07:17:38;5.07;;;2.13;;
6348;SDS011;3207;42.648;23.406;2023-08-08T07:20:05;2.35;;;1.80;;
6348;SDS011;3207;42.648;23.406;2023-08-08T07:22:33;4.68;;;2.05;;
6348;SDS011;3207;42.648;23.406;2023-08-08T07:25:02;5.38;;;2.20;;
6348;SDS011;3207;42.648;23.406;2023-08-08T07:27:29;2.45;;;2.05;;
6348;SDS011;3207;42.648;23.406;2023-08-08T07:29:56;6.25;;;2.70;;
6348;SDS011;3207;42.648;23.406;2023-08-08T07:32:24;7.70;;;2.85;;
6348;SDS011;3207;42.648;23.406;2023-08-08T07:34:50;6.03;;;2.95;;
6348;SDS011;3207;42.648;23.406;2023-08-08T07:37:17;6.72;;;2.03;;
6348;SDS011;3207;42.648;23.406;2023-08-08T07:39:44;2.10;;;1.58;;
6348;SDS011;3207;42.648;23.406;2023-08-08T07:42:12;2.22;;;1.85;;
6348;SDS011;3207;42.648;23.406;2023-08-08T07:44:39;2.88;;;2.10;;
6348;SDS011;3207;42.648;23.406;2023-08-08T07:47:06;5.10;;;2.08;;
6348;SDS011;3207;42.648;23.406;2023-08-08T07:49:33;2.70;;;1.40;;
6348;SDS011;3207;42.648;23.406;2023-08-08T07:52:00;1.75;;;1.60;;
6348;SDS011;3207;42.648;23.406;2023-08-08T07:54:27;2.50;;;1.70;;
6348;SDS011;3207;42.648;23.406;2023-08-08T07:56:54;2.05;;;1.23;;
6348;SDS011;3207;42.648;23.406;2023-08-08T07:59:22;2.30;;;1.00;;
6348;SDS011;3207;42.648;23.406;2023-08-08T08:01:49;2.03;;;1.30;;
6348;SDS011;3207;42.648;23.406;2023-08-08T08:04:16;2.25;;;1.20;;
6348;SDS011;3207;42.648;23.406;2023-08-08T08:06:42;1.77;;;1.23;;
6348;SDS011;3207;42.648;23.406;2023-08-08T08:09:09;2.00;;;1.23;;
6348;SDS011;3207;42.648;23.406;2023-08-08T08:11:36;2.72;;;1.17;;
6348;SDS011;3207;42.648;23.406;2023-08-08T08:14:03;0.77;;;0.77;;
6348;SDS011;3207;42.648;23.406;2023-08-08T08:16:31;1.63;;;1.00;;
6348;SDS011;3207;42.648;23.406;2023-08-08T08:18:58;5.03;;;1.20;;
6348;SDS011;3207;42.648;23.406;2023-08-08T08:21:25;2.42;;;1.75;;
6348;SDS011;3207;42.648;23.406;2023-08-08T08:23:52;1.50;;;1.40;;
6348;SDS011;3207;42.648;23.406;2023-08-08T08:26:18;3.05;;;1.15;;
6348;SDS011;3207;42.648;23.406;2023-08-08T08:28:45;3.00;;;1.20;;
6348;SDS011;3207;42.648;23.406;2023-08-08T08:31:12;1.45;;;0.88;;
6348;SDS011;3207;42.648;23.406;2023-08-08T08:33:40;1.77;;;1.67;;
6348;SDS011;3207;42.648;23.406;2023-08-08T08:36:07;1.17;;;1.08;;
6348;SDS011;3207;42.648;23.406;2023-08-08T08:38:33;2.88;;;1.27;;
6348;SDS011;3207;42.648;23.406;2023-08-08T08:41:00;2.00;;;1.90;;
6348;SDS011;3207;42.648;23.406;2023-08-08T08:43:29;4.90;;;1.70;;
6348;SDS011;3207;42.648;23.406;2023-08-08T08:45:57;7.22;;;2.20;;
6348;SDS011;3207;42.648;23.406;2023-08-08T08:48:27;3.25;;;2.22;;
6348;SDS011;3207;42.648;23.406;2023-08-08T08:50:56;2.88;;;1.35;;
6348;SDS011;3207;42.648;23.406;2023-08-08T08:53:24;3.40;;;1.50;;
6348;SDS011;3207;42.648;23.406;2023-08-08T08:55:51;1.80;;;1.70;;
6348;SDS011;3207;42.648;23.406;2023-08-08T08:58:18;1.75;;;1.30;;
6348;SDS011;3207;42.648;23.406;2023-08-08T09:00:47;0.98;;;0.88;;
6348;SDS011;3207;42.648;23.406;2023-08-08T09:03:14;1.50;;;1.13;;
6348;SDS011;3207;42.648;23.406;2023-08-08T09:05:42;3.38;;;0.90;;
6348;SDS011;3207;42.648;23.406;2023-08-08T09:08:11;1.15;;;0.80;;
6348;SDS011;3207;42.648;23.406;2023-08-08T09:10:38;0.90;;;0.90;;
6348;SDS011;3207;42.648;23.406;2023-08-08T09:13:05;1.05;;;0.98;;
6348;SDS011;3207;42.648;23.406;2023-08-08T09:15:32;1.25;;;1.15;;
6348;SDS011;3207;42.648;23.406;2023-08-08T09:17:59;0.70;;;0.70;;
6348;SDS011;3207;42.648;23.406;2023-08-08T09:20:26;1.15;;;1.05;;
6348;SDS011;3207;42.648;23.406;2023-08-08T09:22:54;0.80;;;0.80;;
6348;SDS011;3207;42.648;23.406;2023-08-08T09:25:22;1.25;;;1.15;;
6348;SDS011;3207;42.648;23.406;2023-08-08T09:27:50;1.17;;;1.08;;
6348;SDS011;3207;42.648;23.406;2023-08-08T09:30:17;1.38;;;1.27;;
6348;SDS011;3207;42.648;23.406;2023-08-08T09:32:44;1.67;;;1.10;;
6348;SDS011;3207;42.648;23.406;2023-08-08T09:35:11;1.33;;;1.23;;
6348;SDS011;3207;42.648;23.406;2023-08-08T09:37:38;1.27;;;0.90;;
6348;SDS011;3207;42.648;23.406;2023-08-08T09:40:05;1.88;;;1.20;;
6348;SDS011;3207;42.648;23.406;2023-08-08T09:42:37;1.08;;;1.02;;
6348;SDS011;3207;42.648;23.406;2023-08-08T09:45:07;1.17;;;0.90;;
6348;SDS011;3207;42.648;23.406;2023-08-08T09:47:35;0.70;;;0.70;;
6348;SDS011;3207;42.648;23.406;2023-08-08T09:50:02;1.77;;;0.73;;
6348;SDS011;3207;42.648;23.406;2023-08-08T09:52:30;1.02;;;0.80;;
6348;SDS011;3207;42.648;23.406;2023-08-08T09:55:00;1.45;;;1.00;;
6348;SDS011;3207;42.648;23.406;2023-08-08T09:57:27;0.73;;;0.73;;
6348;SDS011;3207;42.648;23.406;2023-08-08T09:59:56;1.00;;;1.00;;
6348;SDS011;3207;42.648;23.406;2023-08-08T10:02:23;1.10;;;1.00;;
6348;SDS011;3207;42.648;23.406;2023-08-08T10:04:51;0.90;;;0.90;;
6348;SDS011;3207;42.648;23.406;2023-08-08T10:07:19;1.08;;;1.00;;
6348;SDS011;3207;42.648;23.406;2023-08-08T10:09:46;0.85;;;0.77;;
6348;SDS011;3207;42.648;23.406;2023-08-08T10:12:13;1.42;;;0.90;;
6348;SDS011;3207;42.648;23.406;2023-08-08T10:14:41;1.20;;;1.10;;
6348;SDS011;3207;42.648;23.406;2023-08-08T10:17:12;1.40;;;1.30;;
6348;SDS011;3207;42.648;23.406;2023-08-08T10:19:39;1.20;;;1.10;;
6348;SDS011;3207;42.648;23.406;2023-08-08T10:22:07;4.88;;;1.05;;
6348;SDS011;3207;42.648;23.406;2023-08-08T10:24:34;2.15;;;0.85;;
6348;SDS011;3207;42.648;23.406;2023-08-08T10:27:02;0.93;;;0.90;;
6348;SDS011;3207;42.648;23.406;2023-08-08T10:29:37;5.15;;;1.48;;
6348;SDS011;3207;42.648;23.406;2023-08-08T10:32:06;0.88;;;0.88;;
6348;SDS011;3207;42.648;23.406;2023-08-08T10:34:37;0.93;;;0.93;;
6348;SDS011;3207;42.648;23.406;2023-08-08T10:37:05;0.88;;;0.85;;
6348;SDS011;3207;42.648;23.406;2023-08-08T10:39:48;1.10;;;1.00;;
6348;SDS011;3207;42.648;23.406;2023-08-08T10:42:18;1.05;;;1.05;;
6348;SDS011;3207;42.648;23.406;2023-08-08T10:44:50;1.25;;;1.15;;
6348;SDS011;3207;42.648;23.406;2023-08-08T10:47:22;1.10;;;1.00;;
6348;SDS011;3207;42.648;23.406;2023-08-08T10:49:56;1.20;;;1.10;;
6348;SDS011;3207;42.648;23.406;2023-08-08T10:52:24;1.10;;;1.00;;
6348;SDS011;3207;42.648;23.406;2023-08-08T10:54:51;1.27;;;1.20;;
6348;SDS011;3207;42.648;23.406;2023-08-08T10:57:20;5.20;;;1.15;;
6348;SDS011;3207;42.648;23.406;2023-08-08T10:59:51;1.02;;;0.93;;
6348;SDS011;3207;42.648;23.406;2023-08-08T11:02:18;1.00;;;0.90;;
6348;SDS011;3207;42.648;23.406;2023-08-08T11:04:47;1.95;;;1.17;;
6348;SDS011;3207;42.648;23.406;2023-08-08T11:07:14;2.88;;;1.00;;
6348;SDS011;3207;42.648;23.406;2023-08-08T11:09:42;0.80;;;0.80;;
6348;SDS011;3207;42.648;23.406;2023-08-08T11:12:13;0.95;;;0.95;;
6348;SDS011;3207;42.648;23.406;2023-08-08T11:14:40;1.35;;;0.88;;
6348;SDS011;3207;42.648;23.406;2023-08-08T11:17:07;0.95;;;0.88;;
6348;SDS011;3207;42.648;23.406;2023-08-08T11:19:38;1.17;;;1.10;;
6348;SDS011;3207;42.648;23.406;2023-08-08T11:22:10;0.80;;;0.80;;
6348;SDS011;3207;42.648;23.406;2023-08-08T11:24:43;0.80;;;0.80;;
6348;SDS011;3207;42.648;23.406;2023-08-08T11:27:10;1.60;;;1.50;;
6348;SDS011;3207;42.648;23.406;2023-08-08T11:29:37;0.88;;;0.88;;
6348;SDS011;3207;42.648;23.406;2023-08-08T11:32:04;1.10;;;1.00;;
6348;SDS011;3207;42.648;23.406;2023-08-08T11:34:31;1.00;;;1.00;;
6348;SDS011;3207;42.648;23.406;2023-08-08T11:36:59;1.23;;;0.75;;
6348;SDS011;3207;42.648;23.406;2023-08-08T11:39:28;0.70;;;0.70;;
6348;SDS011;3207;42.648;23.406;2023-08-08T11:41:55;0.98;;;0.98;;
6348;SDS011;3207;42.648;23.406;2023-08-08T11:44:22;1.23;;;1.10;;
6348;SDS011;3207;42.648;23.406;2023-08-08T11:46:49;0.80;;;0.80;;
6348;SDS011;3207;42.648;23.406;2023-08-08T11:49:16;1.00;;;0.98;;
6348;SDS011;3207;42.648;23.406;2023-08-08T11:51:44;1.50;;;1.08;;
6348;SDS011;3207;42.648;23.406;2023-08-08T11:54:12;0.70;;;0.70;;
6348;SDS011;3207;42.648;23.406;2023-08-08T11:56:40;1.13;;;1.02;;
6348;SDS011;3207;42.648;23.406;2023-08-08T11:59:07;2.78;;;0.88;;
6348;SDS011;3207;42.648;23.406;2023-08-08T12:01:37;1.65;;;0.80;;
6348;SDS011;3207;42.648;23.406;2023-08-08T12:04:05;0.70;;;0.70;;
6348;SDS011;3207;42.648;23.406;2023-08-08T12:06:32;0.95;;;0.95;;
6348;SDS011;3207;42.648;23.406;2023-08-08T12:09:00;2.28;;;1.00;;
6348;SDS011;3207;42.648;23.406;2023-08-08T12:11:29;1.17;;;1.08;;
6348;SDS011;3207;42.648;23.406;2023-08-08T12:13:59;1.10;;;1.05;;
6348;SDS011;3207;42.648;23.406;2023-08-08T12:16:27;0.90;;;0.90;;
6348;SDS011;3207;42.648;23.406;2023-08-08T12:18:55;2.20;;;1.08;;
6348;SDS011;3207;42.648;23.406;2023-08-08T12:21:27;0.70;;;0.70;;
6348;SDS011;3207;42.648;23.406;2023-08-08T12:23:58;0.82;;;0.82;;
6348;SDS011;3207;42.648;23.406;2023-08-08T12:26:25;0.80;;;0.80;;
6348;SDS011;3207;42.648;23.406;2023-08-08T12:28:52;1.00;;;0.90;;
6348;SDS011;3207;42.648;23.406;2023-08-08T12:31:21;1.40;;;1.08;;
6348;SDS011;3207;42.648;23.406;2023-08-08T12:33:47;0.88;;;0.88;;
6348;SDS011;3207;42.648;23.406;2023-08-08T12:36:14;1.42;;;1.10;;
6348;SDS011;3207;42.648;23.406;2023-08-08T12:38:41;1.08;;;1.00;;
6348;SDS011;3207;42.648;23.406;2023-08-08T12:41:08;0.88;;;0.88;;
6348;SDS011;3207;42.648;23.406;2023-08-08T12:43:36;1.00;;;1.00;;
6348;SDS011;3207;42.648;23.406;2023-08-08T12:46:02;0.80;;;0.80;;
6348;SDS011;3207;42.648;23.406;2023-08-08T12:48:31;1.08;;;0.80;;
6348;SDS011;3207;42.648;23.406;2023-08-08T12:50:58;1.10;;;1.10;;
6348;SDS011;3207;42.648;23.406;2023-08-08T12:53:24;0.73;;;0.73;;
6348;SDS011;3207;42.648;23.406;2023-08-08T12:55:51;1.30;;;0.70;;
6348;SDS011;3207;42.648;23.406;2023-08-08T12:58:18;0.70;;;0.70;;
6348;SDS011;3207;42.648;23.406;2023-08-08T13:00:45;0.73;;;0.73;;
6348;SDS011;3207;42.648;23.406;2023-08-08T13:03:12;1.10;;;1.00;;
6348;SDS011;3207;42.648;23.406;2023-08-08T13:05:41;0.90;;;0.90;;
6348;SDS011;3207;42.648;23.406;2023-08-08T13:08:07;0.80;;;0.80;;
6348;SDS011;3207;42.648;23.406;2023-08-08T13:10:35;1.13;;;1.00;;
6348;SDS011;3207;42.648;23.406;2023-08-08T13:13:01;1.67;;;0.90;;
6348;SDS011;3207;42.648;23.406;2023-08-08T13:15:28;0.95;;;0.85;;
6348;SDS011;3207;42.648;23.406;2023-08-08T13:17:55;0.90;;;0.90;;
6348;SDS011;3207;42.648;23.406;2023-08-08T13:20:22;1.35;;;0.90;;
6348;SDS011;3207;42.648;23.406;2023-08-08T13:22:50;1.02;;;0.90;;
6348;SDS011;3207;42.648;23.406;2023-08-08T13:25:17;1.10;;;1.10;;
6348;SDS011;3207;42.648;23.406;2023-08-08T13:27:44;0.70;;;0.70;;
6348;SDS011;3207;42.648;23.406;2023-08-08T13:30:12;2.17;;;1.23;;
6348;SDS011;3207;42.648;23.406;2023-08-08T13:32:40;0.73;;;0.73;;
6348;SDS011;3207;42.648;23.406;2023-08-08T13:35:07;1.08;;;0.80;;
6348;SDS011;3207;42.648;23.406;2023-08-08T13:37:34;1.00;;;0.90;;
6348;SDS011;3207;42.648;23.406;2023-08-08T13:40:03;1.02;;;0.90;;
6348;SDS011;3207;42.648;23.406;2023-08-08T13:42:30;0.93;;;0.93;;
6348;SDS011;3207;42.648;23.406;2023-08-08T13:44:57;0.80;;;0.80;;
6348;SDS011;3207;42.648;23.406;2023-08-08T13:47:24;0.90;;;0.90;;
6348;SDS011;3207;42.648;23.406;2023-08-08T13:49:51;0.82;;;0.82;;
6348;SDS011;3207;42.648;23.406;2023-08-08T13:52:18;0.82;;;0.82;;
6348;SDS011;3207;42.648;23.406;2023-08-08T13:54:45;0.80;;;0.68;;
6348;SDS011;3207;42.648;23.406;2023-08-08T13:57:13;1.27;;;1.17;;
6348;SDS011;3207;42.648;23.406;2023-08-08T13:59:40;0.98;;;0.82;;
6348;SDS011;3207;42.648;23.406;2023-08-08T14:02:07;1.75;;;0.70;;
6348;SDS011;3207;42.648;23.406;2023-08-08T14:04:33;1.77;;;1.42;;
6348;SDS011;3207;42.648;23.406;2023-08-08T14:07:00;1.02;;;1.00;;
6348;SDS011;3207;42.648;23.406;2023-08-08T14:09:27;0.90;;;0.90;;
6348;SDS011;3207;42.648;23.406;2023-08-08T14:11:54;1.13;;;1.02;;
6348;SDS011;3207;42.648;23.406;2023-08-08T14:14:22;1.20;;;1.10;;
6348;SDS011;3207;42.648;23.406;2023-08-08T14:16:49;0.73;;;0.70;;
6348;SDS011;3207;42.648;23.406;2023-08-08T14:19:16;1.17;;;1.00;;
6348;SDS011;3207;42.648;23.406;2023-08-08T14:21:43;2.05;;;1.65;;
6348;SDS011;3207;42.648;23.406;2023-08-08T14:24:12;1.08;;;1.08;;
6348;SDS011;3207;42.648;23.406;2023-08-08T14:26:39;1.67;;;1.00;;
6348;SDS011;3207;42.648;23.406;2023-08-08T14:29:06;1.50;;;0.98;;
6348;SDS011;3207;42.648;23.406;2023-08-08T14:31:34;0.80;;;0.80;;
6348;SDS011;3207;42.648;23.406;2023-08-08T14:34:02;0.85;;;0.85;;
6348;SDS011;3207;42.648;23.406;2023-08-08T14:36:29;1.25;;;1.15;;
6348;SDS011;3207;42.648;23.406;2023-08-08T14:38:56;1.00;;;1.00;;
6348;SDS011;3207;42.648;23.406;2023-08-08T14:41:23;1.38;;;1.00;;
6348;SDS011;3207;42.648;23.406;2023-08-08T14:43:50;0.98;;;0.80;;
6348;SDS011;3207;42.648;23.406;2023-08-08T14:46:17;1.02;;;1.00;;
6348;SDS011;3207;42.648;23.406;2023-08-08T14:48:45;0.80;;;0.80;;
6348;SDS011;3207;42.648;23.406;2023-08-08T14:51:12;1.35;;;1.17;;
6348;SDS011;3207;42.648;23.406;2023-08-08T14:53:41;1.40;;;0.98;;
6348;SDS011;3207;42.648;23.406;2023-08-08T14:56:08;1.65;;;0.98;;
6348;SDS011;3207;42.648;23.406;2023-08-08T14:58:35;1.25;;;1.20;;
6348;SDS011;3207;42.648;23.406;2023-08-08T15:01:02;0.90;;;0.90;;